Time;durP1;ratioP1;P1;durP2;ratioP2;P2;SDS_P1;SDS_P2;PMS_P1;PMS_P2;Temp;Humidity;BMP_temperature;BMP_pressure;BME280_temperature;BME280_humidity;BME280_pressure;Samples;Min_cycle;Max_cycle;Signal;HPM_P1;HPM_P2
2022/06/28 00:00:57;;;;;;;13.55;8.82;;;12.80;99.90;;;;;;5036480;28;20057;-84
2022/06/28 00:03:22;;;;;;;6.97;6.38;;;12.80;99.90;;;;;;5036667;28;20037;-84
2022/06/28 00:05:48;;;;;;;9.02;8.07;;;12.70;99.90;;;;;;5018835;28;20466;-84
2022/06/28 00:08:14;;;;;;;11.88;8.35;;;12.70;99.90;;;;;;5018803;28;20029;-84
2022/06/28 00:10:39;;;;;;;8.93;7.88;;;12.70;99.90;;;;;;5018759;28;20022;-87
2022/06/28 00:13:05;;;;;;;14.40;9.45;;;12.70;99.90;;;;;;5018948;28;20034;-84
2022/06/28 00:18:14;;;;;;;9.95;8.95;;;12.60;99.90;;;;;;5036615;28;20047;-84
2022/06/28 00:20:40;;;;;;;11.07;8.93;;;12.60;99.90;;;;;;5018593;28;20116;-84
2022/06/28 00:23:05;;;;;;;11.02;9.93;;;12.50;99.90;;;;;;5035058;28;20032;-85
2022/06/28 00:25:31;;;;;;;13.80;10.00;;;12.50;99.90;;;;;;5018552;28;20022;-84
2022/06/28 00:27:57;;;;;;;40.55;9.40;;;12.40;99.90;;;;;;5035056;28;20029;-87
2022/06/28 00:30:22;;;;;;;12.10;9.60;;;12.40;99.90;;;;;;5018341;28;20496;-87
2022/06/28 00:32:48;;;;;;;10.23;8.57;;;12.40;99.90;;;;;;5017836;28;20025;-85
2022/06/28 00:35:13;;;;;;;10.10;8.48;;;12.40;99.90;;;;;;5018428;28;20021;-87
2022/06/28 00:37:39;;;;;;;11.10;9.90;;;12.30;99.90;;;;;;5018114;28;20612;-87
2022/06/28 00:40:05;;;;;;;11.82;10.50;;;12.30;99.90;;;;;;5018247;28;20100;-84
2022/06/28 00:42:31;;;;;;;15.65;10.27;;;12.30;99.90;;;;;;5018387;28;20025;-84
2022/06/28 00:44:59;;;;;;;10.27;9.27;;;12.30;99.90;;;;;;5034409;28;20080;-87
2022/06/28 00:47:27;;;;;;;11.75;10.23;;;12.20;99.90;;;;;;5018190;28;20056;-85
2022/06/28 00:49:57;;;;;;;11.23;9.27;;;12.20;99.90;;;;;;5018513;28;20032;-85
2022/06/28 00:52:23;;;;;;;11.95;10.55;;;12.20;99.90;;;;;;5018037;28;20049;-85
2022/06/28 00:54:48;;;;;;;12.43;9.60;;;12.20;99.90;;;;;;5017954;28;20028;-84
2022/06/28 00:57:14;;;;;;;11.18;10.07;;;12.20;99.90;;;;;;5017906;28;20038;-84
2022/06/28 00:59:39;;;;;;;12.40;8.95;;;12.10;99.90;;;;;;5018124;28;20112;-84
2022/06/28 01:02:05;;;;;;;10.57;9.40;;;12.10;99.90;;;;;;5017893;28;20029;-84
2022/06/28 01:04:31;;;;;;;10.15;9.02;;;12.00;99.90;;;;;;5018167;28;20366;-84
2022/06/28 01:06:56;;;;;;;9.02;8.10;;;12.10;99.90;;;;;;5017918;28;20033;-84
2022/06/28 01:09:22;;;;;;;8.75;7.28;;;12.00;99.90;;;;;;5017597;28;20040;-85
2022/06/28 01:11:48;;;;;;;8.07;6.32;;;12.00;99.90;;;;;;5017720;28;20465;-85
2022/06/28 01:14:13;;;;;;;6.47;5.05;;;12.00;99.90;;;;;;5018207;28;20030;-84
2022/06/28 01:16:39;;;;;;;6.32;5.30;;;12.00;99.90;;;;;;5017840;28;20022;-85
2022/06/28 01:19:06;;;;;;;6.18;5.57;;;11.90;99.90;;;;;;5017952;28;20104;-84
2022/06/28 01:21:34;;;;;;;7.82;7.05;;;12.00;99.90;;;;;;5017515;28;20022;-84
2022/06/28 01:24:00;;;;;;;9.90;7.28;;;11.90;99.90;;;;;;5017372;28;20021;-84
2022/06/28 01:26:26;;;;;;;7.93;6.53;;;11.90;99.90;;;;;;5017490;28;20072;-87
2022/06/28 01:28:52;;;;;;;7.28;6.38;;;11.90;99.90;;;;;;5017394;28;20033;-85
2022/06/28 01:31:19;;;;;;;6.65;6.00;;;11.90;99.90;;;;;;5034029;28;20474;-84
2022/06/28 01:33:45;;;;;;;7.38;6.15;;;11.90;99.90;;;;;;5034899;28;20030;-84
2022/06/28 01:36:11;;;;;;;9.25;7.68;;;11.80;99.90;;;;;;5034436;28;20120;-85
2022/06/28 01:38:39;;;;;;;9.40;8.05;;;11.80;99.90;;;;;;5017173;28;20125;-87
2022/06/28 01:41:05;;;;;;;10.63;9.10;;;11.80;99.90;;;;;;5034765;28;20363;-88
2022/06/28 01:43:32;;;;;;;15.85;9.68;;;11.80;99.90;;;;;;5016243;28;20120;-88
2022/06/28 01:45:59;;;;;;;12.55;9.25;;;11.80;99.90;;;;;;5017029;28;20029;-87
2022/06/28 01:48:25;;;;;;;13.60;8.80;;;11.80;99.90;;;;;;5016994;28;20030;-87
2022/06/28 01:50:52;;;;;;;8.23;6.80;;;11.80;99.90;;;;;;5016967;28;20026;-87
2022/06/28 01:53:19;;;;;;;7.30;5.40;;;11.80;99.90;;;;;;5017152;28;20037;-87
2022/06/28 01:55:44;;;;;;;7.13;5.55;;;11.80;99.90;;;;;;5017350;28;20481;-85
2022/06/28 01:58:10;;;;;;;6.10;5.05;;;11.70;99.90;;;;;;5016766;28;20111;-87
2022/06/28 02:00:37;;;;;;;8.60;7.18;;;11.70;99.90;;;;;;5016738;28;20027;-85
2022/06/28 02:03:03;;;;;;;10.32;7.43;;;11.70;99.90;;;;;;5016977;28;20061;-84
2022/06/28 02:05:29;;;;;;;14.05;9.50;;;11.70;99.90;;;;;;5016580;28;20470;-85
2022/06/28 02:07:57;;;;;;;13.00;9.77;;;11.70;99.90;;;;;;5016671;28;20064;-87
2022/06/28 02:10:23;;;;;;;12.77;9.88;;;11.70;99.90;;;;;;5016562;28;20025;-87
2022/06/28 02:12:49;;;;;;;11.90;9.43;;;11.60;99.90;;;;;;5016634;28;20151;-87
2022/06/28 02:15:15;;;;;;;9.48;7.13;;;11.60;99.90;;;;;;5016603;28;20516;-87
2022/06/28 02:17:42;;;;;;;12.88;6.88;;;11.60;99.90;;;;;;5016534;28;20401;-87
2022/06/28 02:20:08;;;;;;;6.93;4.65;;;11.60;99.90;;;;;;5016337;28;20067;-87
2022/06/28 02:22:34;;;;;;;7.97;7.18;;;11.60;99.90;;;;;;5016447;28;20029;-87
2022/06/28 02:24:59;;;;;;;4.50;3.33;;;11.50;99.90;;;;;;5016745;28;20052;-87
2022/06/28 02:27:25;;;;;;;4.82;3.40;;;11.50;99.90;;;;;;5034091;28;20030;-84
2022/06/28 02:29:51;;;;;;;4.88;3.90;;;11.40;99.90;;;;;;5016538;28;20537;-85
2022/06/28 02:32:16;;;;;;;3.58;3.13;;;11.40;99.90;;;;;;5016255;28;20546;-85
2022/06/28 02:40:23;;;;;;;5.88;4.60;;;11.30;99.90;;;;;;5034431;28;20512;-88
2022/06/28 02:42:50;;;;;;;5.55;4.97;;;11.30;99.90;;;;;;5016332;28;20022;-85
2022/06/28 02:45:16;;;;;;;7.13;4.95;;;11.30;99.90;;;;;;5015861;28;20027;-87
2022/06/28 02:47:42;;;;;;;7.07;5.25;;;11.30;99.90;;;;;;5015928;28;20030;-85
2022/06/28 02:50:09;;;;;;;9.60;5.30;;;11.30;99.90;;;;;;5033102;28;20060;-87
2022/06/28 02:52:34;;;;;;;8.05;6.10;;;11.40;99.90;;;;;;5034046;28;20049;-85
2022/06/28 02:55:00;;;;;;;11.98;7.40;;;11.40;99.90;;;;;;5035797;28;20028;-85
2022/06/28 02:57:25;;;;;;;7.38;5.75;;;11.40;99.90;;;;;;5020158;28;20045;-88
2022/06/28 02:59:51;;;;;;;8.65;6.15;;;11.40;99.90;;;;;;5037664;28;20075;-85
2022/06/28 03:02:16;;;;;;;9.95;7.57;;;11.40;99.90;;;;;;5020285;28;20045;-85
2022/06/28 03:04:42;;;;;;;7.10;5.07;;;11.40;99.90;;;;;;5037805;28;20030;-85
2022/06/28 03:07:07;;;;;;;7.80;4.88;;;11.40;99.90;;;;;;5019840;28;20027;-85
2022/06/28 03:09:33;;;;;;;12.68;7.28;;;11.30;99.90;;;;;;5020049;28;20032;-84
2022/06/28 03:11:59;;;;;;;12.25;8.98;;;11.30;99.90;;;;;;5020136;28;20021;-88
2022/06/28 03:14:25;;;;;;;13.32;9.82;;;11.30;99.90;;;;;;5019993;28;20484;-88
2022/06/28 03:16:50;;;;;;;14.68;10.20;;;11.30;99.90;;;;;;5019979;28;20116;-87
2022/06/28 03:19:16;;;;;;;15.13;10.52;;;11.30;99.90;;;;;;5036300;28;20449;-84
2022/06/28 03:21:41;;;;;;;12.77;10.52;;;11.40;99.90;;;;;;5036370;28;20462;-85
2022/06/28 03:24:08;;;;;;;13.88;9.88;;;11.40;99.90;;;;;;5036294;28;20037;-85
2022/06/28 03:26:34;;;;;;;15.73;10.40;;;11.40;99.90;;;;;;5019782;28;20017;-87
2022/06/28 03:29:00;;;;;;;18.73;10.05;;;11.50;99.90;;;;;;5036343;28;20063;-85
2022/06/28 03:31:25;;;;;;;15.65;9.70;;;11.40;99.90;;;;;;5036179;28;20441;-85
2022/06/28 03:33:51;;;;;;;13.73;10.00;;;11.50;99.90;;;;;;5019471;28;20499;-85
2022/06/28 03:36:16;;;;;;;11.65;9.10;;;11.50;99.90;;;;;;5035878;28;20049;-87
2022/06/28 03:38:42;;;;;;;15.60;9.40;;;11.50;99.90;;;;;;5019493;28;20029;-85
2022/06/28 03:41:07;;;;;;;14.65;8.57;;;11.50;99.90;;;;;;5019546;28;20406;-85
2022/06/28 03:43:33;;;;;;;12.23;8.88;;;11.50;99.90;;;;;;5019555;28;20416;-88
2022/06/28 03:45:58;;;;;;;11.60;8.07;;;11.50;99.90;;;;;;5036685;28;20040;-87
2022/06/28 03:48:24;;;;;;;11.45;8.30;;;11.50;99.90;;;;;;5036799;28;20044;-85
2022/06/28 03:50:49;;;;;;;11.52;8.38;;;11.50;99.90;;;;;;5019377;28;20052;-85
2022/06/28 03:53:15;;;;;;;10.25;7.60;;;11.50;99.90;;;;;;5019412;28;20044;-87
2022/06/28 03:55:40;;;;;;;12.80;8.55;;;11.60;99.90;;;;;;5019252;28;20029;-88
2022/06/28 03:58:06;;;;;;;13.30;8.45;;;11.50;99.90;;;;;;5036568;28;20048;-88
2022/06/28 04:00:31;;;;;;;12.68;7.82;;;11.60;99.90;;;;;;5019237;28;20025;-85
2022/06/28 04:03:00;;;;;;;13.13;8.52;;;11.60;99.90;;;;;;5019254;28;20025;-85
2022/06/28 04:05:27;;;;;;;15.65;8.10;;;11.60;99.90;;;;;;5036087;28;20026;-85
2022/06/28 04:07:53;;;;;;;13.60;7.70;;;11.60;99.90;;;;;;5035869;28;20086;-85
2022/06/28 04:10:19;;;;;;;12.77;7.78;;;11.70;99.90;;;;;;5018786;28;20056;-87
2022/06/28 04:12:44;;;;;;;11.32;8.45;;;11.70;99.90;;;;;;5019071;28;20022;-88
2022/06/28 04:15:10;;;;;;;10.73;8.20;;;11.70;99.90;;;;;;5018809;28;20037;-85
2022/06/28 04:17:36;;;;;;;13.75;8.55;;;11.80;99.90;;;;;;5036420;28;20040;-85
2022/06/28 04:20:02;;;;;;;11.57;8.52;;;11.80;99.90;;;;;;5018917;28;20551;-85
2022/06/28 04:22:28;;;;;;;11.82;7.70;;;11.90;99.90;;;;;;5018713;28;20026;-86
2022/06/28 04:24:53;;;;;;;17.77;8.85;;;11.90;99.90;;;;;;5018654;28;20500;-85
2022/06/28 04:27:19;;;;;;;14.65;8.25;;;11.90;99.90;;;;;;5018661;28;20027;-86
2022/06/28 04:29:44;;;;;;;13.20;7.72;;;12.00;99.90;;;;;;5018450;28;20025;-85
2022/06/28 04:32:10;;;;;;;11.52;8.45;;;12.00;99.90;;;;;;5019094;28;20033;-85
2022/06/28 04:34:35;;;;;;;13.38;8.13;;;12.10;99.90;;;;;;5018458;28;20080;-85
2022/06/28 04:37:01;;;;;;;14.95;8.43;;;12.10;99.90;;;;;;5018323;28;20412;-88
2022/06/28 04:39:27;;;;;;;13.95;8.25;;;12.20;99.90;;;;;;5018429;28;20025;-88
2022/06/28 04:41:53;;;;;;;12.52;8.38;;;12.20;99.90;;;;;;5018575;28;20022;-85
2022/06/28 04:44:18;;;;;;;14.20;8.65;;;12.30;99.90;;;;;;5018514;28;20547;-85
2022/06/28 04:46:44;;;;;;;10.48;7.93;;;12.30;99.90;;;;;;5018257;28;20033;-85
2022/06/28 04:49:09;;;;;;;13.63;8.35;;;12.40;99.90;;;;;;5018312;28;20401;-85
2022/06/28 04:51:35;;;;;;;16.45;8.73;;;12.40;99.90;;;;;;5018372;28;20106;-85
2022/06/28 04:54:00;;;;;;;11.20;8.60;;;12.50;99.90;;;;;;5018304;28;20029;-85
2022/06/28 04:56:26;;;;;;;12.95;8.70;;;12.60;99.90;;;;;;5035772;28;20036;-85
2022/06/28 04:58:51;;;;;;;7.60;6.03;;;13.00;99.90;;;;;;5017982;28;20033;-85
2022/06/28 05:01:17;;;;;;;10.63;5.53;;;13.50;99.90;;;;;;5017765;28;20013;-85
2022/06/28 05:03:43;;;;;;;9.43;4.35;;;14.20;99.90;;;;;;5018213;28;20456;-85
2022/06/28 05:06:09;;;;;;;9.75;5.05;;;14.80;99.90;;;;;;5017801;28;20113;-85
2022/06/28 05:08:35;;;;;;;10.10;4.63;;;15.40;99.90;;;;;;5017840;28;20120;-85
2022/06/28 05:11:01;;;;;;;6.57;3.78;;;15.90;99.90;;;;;;5017717;28;20021;-85
2022/06/28 05:13:27;;;;;;;6.32;3.00;;;16.30;99.90;;;;;;5017820;28;20394;-85
2022/06/28 05:15:53;;;;;;;5.75;2.88;;;16.70;99.90;;;;;;5017592;28;20033;-85
2022/06/28 05:18:18;;;;;;;5.63;3.28;;;17.00;99.90;;;;;;5017190;28;20080;-85
2022/06/28 05:20:44;;;;;;;8.40;3.08;;;17.20;99.90;;;;;;5017653;28;20053;-85
2022/06/28 05:23:09;;;;;;;4.47;2.80;;;17.50;99.90;;;;;;5017865;28;20036;-85
2022/06/28 05:25:35;;;;;;;4.22;2.40;;;17.70;99.90;;;;;;5017750;28;20466;-85
2022/06/28 05:28:00;;;;;;;5.47;2.58;;;18.00;99.90;;;;;;5017362;28;20038;-85
2022/06/28 05:30:26;;;;;;;7.75;2.67;;;18.10;99.90;;;;;;5017268;28;20478;-85
2022/06/28 05:32:52;;;;;;;6.22;2.45;;;18.30;99.90;;;;;;5017121;28;20389;-85
2022/06/28 05:35:17;;;;;;;10.30;3.05;;;18.40;99.90;;;;;;5017629;28;20355;-85
2022/06/28 05:37:43;;;;;;;5.32;2.08;;;18.50;99.90;;;;;;5016934;28;20056;-86
2022/06/28 05:40:09;;;;;;;6.22;2.25;;;18.50;99.90;;;;;;5017556;28;20048;-85
2022/06/28 05:42:35;;;;;;;5.72;2.00;;;18.60;99.90;;;;;;5017169;28;20025;-85
2022/06/28 05:45:00;;;;;;;4.85;2.05;;;18.70;99.90;;;;;;5017097;28;20025;-85
2022/06/28 05:47:26;;;;;;;7.13;1.83;;;18.90;99.90;;;;;;5016988;28;20504;-85
2022/06/28 05:49:51;;;;;;;8.07;2.38;;;18.90;99.90;;;;;;5016753;28;20057;-85
2022/06/28 05:52:17;;;;;;;10.02;2.40;;;18.90;99.90;;;;;;5016983;28;20028;-84
2022/06/28 05:54:42;;;;;;;7.90;2.58;;;18.80;99.90;;;;;;5033397;28;20440;-84
2022/06/28 05:57:08;;;;;;;6.28;2.00;;;18.70;99.90;;;;;;5016875;28;20025;-84
2022/06/28 05:59:33;;;;;;;6.00;2.25;;;18.60;99.90;;;;;;5016702;28;20029;-84
2022/06/28 06:01:59;;;;;;;9.73;2.55;;;18.40;99.90;;;;;;5016517;28;20018;-85
2022/06/28 06:04:25;;;;;;;8.82;3.00;;;18.30;99.90;;;;;;5034221;28;20393;-84
2022/06/28 06:06:51;;;;;;;10.27;3.38;;;18.10;99.90;;;;;;5016592;28;20022;-84
2022/06/28 06:09:16;;;;;;;6.57;2.35;;;18.00;99.90;;;;;;5016481;28;20029;-84
2022/06/28 06:11:44;;;;;;;9.57;2.80;;;17.90;99.90;;;;;;5016400;28;20021;-83
2022/06/28 06:14:10;;;;;;;14.02;3.05;;;17.80;99.90;;;;;;5016612;28;20163;-84
2022/06/28 06:16:35;;;;;;;7.75;2.67;;;17.70;99.90;;;;;;5016593;28;20454;-85
2022/06/28 06:19:01;;;;;;;10.27;3.08;;;17.70;99.90;;;;;;5016298;28;20489;-84
2022/06/28 06:21:26;;;;;;;9.18;2.85;;;17.70;99.90;;;;;;5016384;28;20075;-85
2022/06/28 06:23:52;;;;;;;7.50;3.10;;;17.80;99.90;;;;;;5016340;28;20033;-84
2022/06/28 06:26:17;;;;;;;8.32;2.70;;;17.80;99.90;;;;;;5016576;28;20028;-84
2022/06/28 06:28:43;;;;;;;9.38;2.83;;;17.80;99.90;;;;;;5033461;28;20025;-84
2022/06/28 06:31:09;;;;;;;9.32;3.70;;;17.90;99.90;;;;;;5016225;28;20028;-85
2022/06/28 06:33:35;;;;;;;6.80;2.40;;;17.90;99.90;;;;;;5016422;28;20021;-86
2022/06/28 06:36:02;;;;;;;11.15;2.78;;;17.90;99.90;;;;;;5016393;28;20565;-86
2022/06/28 06:38:27;;;;;;;11.10;2.72;;;17.90;99.90;;;;;;5016224;28;20482;-85
2022/06/28 06:40:55;;;;;;;9.90;2.55;;;17.90;99.90;;;;;;5016177;28;20026;-85
2022/06/28 06:43:21;;;;;;;11.02;2.75;;;17.90;99.90;;;;;;5033681;28;20381;-85
2022/06/28 06:45:47;;;;;;;15.88;2.78;;;17.90;99.90;;;;;;5016082;28;20382;-85
2022/06/28 06:48:12;;;;;;;10.70;2.35;;;17.90;99.90;;;;;;5016121;28;20039;-86
2022/06/28 06:50:38;;;;;;;15.50;3.17;;;17.90;99.90;;;;;;5016202;28;20532;-85
2022/06/28 06:53:03;;;;;;;13.38;3.17;;;17.80;99.90;;;;;;5016039;28;20021;-85
2022/06/28 06:55:29;;;;;;;8.75;2.85;;;17.90;99.90;;;;;;5016024;28;20057;-86
2022/06/28 06:57:55;;;;;;;7.93;2.22;;;18.00;99.90;;;;;;5016165;28;20037;-85
2022/06/28 07:00:20;;;;;;;9.88;2.60;;;18.00;99.90;;;;;;5015975;28;20032;-85
2022/06/28 07:02:47;;;;;;;14.52;3.15;;;18.00;99.90;;;;;;5015929;28;20029;-85
2022/06/28 07:05:12;;;;;;;11.60;2.88;;;18.00;99.90;;;;;;5015810;28;20052;-85
2022/06/28 07:07:39;;;;;;;12.75;2.67;;;18.10;99.90;;;;;;5016089;28;20465;-85
2022/06/28 07:10:05;;;;;;;8.05;2.35;;;18.10;99.90;;;;;;5033544;28;20100;-85
2022/06/28 07:12:31;;;;;;;7.10;2.40;;;18.20;99.90;;;;;;5033476;28;20547;-85
2022/06/28 07:14:56;;;;;;;12.52;2.80;;;18.20;99.90;;;;;;5015765;28;20025;-85
2022/06/28 07:17:22;;;;;;;12.63;3.00;;;18.30;99.90;;;;;;5015728;28;20025;-86
2022/06/28 07:19:47;;;;;;;7.07;2.50;;;18.30;99.90;;;;;;5033540;28;20071;-85
2022/06/28 07:22:13;;;;;;;7.68;2.75;;;18.20;99.90;;;;;;5032214;28;20088;-85
2022/06/28 07:24:39;;;;;;;13.20;3.72;;;18.20;99.90;;;;;;5033153;28;20101;-85
2022/06/28 07:27:04;;;;;;;11.18;2.88;;;18.30;99.90;;;;;;5033391;28;20029;-86
2022/06/28 07:29:30;;;;;;;12.85;2.88;;;18.40;99.90;;;;;;5033292;28;20049;-85
2022/06/28 07:31:56;;;;;;;13.35;2.78;;;18.50;99.90;;;;;;5015641;28;20025;-85
2022/06/28 07:34:23;;;;;;;7.00;2.10;;;18.50;99.90;;;;;;5015577;28;20017;-85
2022/06/28 07:36:49;;;;;;;9.93;2.30;;;18.60;99.90;;;;;;5032744;28;20128;-85
2022/06/28 07:39:14;;;;;;;14.10;2.50;;;18.70;99.90;;;;;;5033109;28;20116;-85
2022/06/28 07:41:40;;;;;;;11.80;2.00;;;18.80;99.90;;;;;;5036169;28;20056;-85
2022/06/28 07:44:05;;;;;;;10.02;1.40;;;18.80;99.90;;;;;;5036790;28;20021;-85
2022/06/28 07:46:31;;;;;;;10.40;1.60;;;18.80;99.90;;;;;;5019107;28;20071;-85
2022/06/28 07:48:57;;;;;;;8.90;1.60;;;18.80;99.90;;;;;;5036763;28;20367;-85
2022/06/28 07:54:06;;;;;;;7.50;2.60;;;18.90;99.90;;;;;;5036954;28;20095;-85
2022/06/28 07:56:32;;;;;;;12.35;2.78;;;19.00;99.90;;;;;;5035420;28;20022;-85
2022/06/28 07:58:58;;;;;;;11.40;2.03;;;19.10;99.90;;;;;;5018349;28;20037;-85
2022/06/28 08:01:24;;;;;;;6.65;2.40;;;19.20;99.90;;;;;;5018935;28;20021;-85
2022/06/28 08:03:49;;;;;;;9.23;2.15;;;19.30;99.90;;;;;;5036572;28;20032;-85
2022/06/28 08:06:15;;;;;;;8.35;1.17;;;19.40;99.90;;;;;;5018729;28;20026;-86
2022/06/28 08:08:41;;;;;;;6.50;1.48;;;19.50;99.90;;;;;;5018811;28;20025;-86
2022/06/28 08:11:08;;;;;;;9.05;1.48;;;19.50;99.90;;;;;;5036816;28;20025;-85
2022/06/28 08:13:33;;;;;;;6.32;1.50;;;19.60;99.90;;;;;;5018717;28;20021;-85
2022/06/28 08:15:59;;;;;;;5.68;1.52;;;19.60;99.90;;;;;;5035287;28;20025;-85
2022/06/28 08:18:25;;;;;;;10.77;1.73;;;19.60;99.90;;;;;;5018465;28;20400;-85
2022/06/28 08:20:50;;;;;;;8.70;1.35;;;19.60;99.90;;;;;;5018524;28;20029;-85
2022/06/28 08:23:16;;;;;;;6.93;1.17;;;19.70;99.90;;;;;;5018873;28;20036;-85
2022/06/28 08:25:42;;;;;;;6.30;0.80;;;19.80;99.90;;;;;;5018473;28;20021;-86
2022/06/28 08:28:09;;;;;;;7.65;1.00;;;19.90;99.90;;;;;;5018453;28;20033;-85
2022/06/28 08:30:34;;;;;;;6.68;0.95;;;19.90;99.90;;;;;;5018545;28;20025;-85
2022/06/28 08:33:00;;;;;;;8.10;0.98;;;20.00;99.90;;;;;;5036074;28;20030;-85
2022/06/28 08:35:25;;;;;;;5.53;1.20;;;19.90;99.90;;;;;;5035745;28;20465;-85
2022/06/28 08:37:51;;;;;;;7.30;0.75;;;19.90;99.90;;;;;;5036219;28;20454;-86
2022/06/28 08:40:17;;;;;;;6.50;0.70;;;19.90;99.90;;;;;;5018228;28;20076;-86
2022/06/28 08:42:48;;;;;;;5.00;0.80;;;20.00;99.90;;;;;;5035649;28;20481;-85
2022/06/28 08:45:16;;;;;;;3.17;0.82;;;20.10;99.90;;;;;;5018179;28;20017;-86
2022/06/28 08:47:46;;;;;;;2.97;0.50;;;20.20;99.90;;;;;;5018602;28;20025;-85
2022/06/28 08:50:15;;;;;;;7.47;0.60;;;20.30;99.90;;;;;;5034606;28;20025;-85
2022/06/28 08:52:44;;;;;;;4.93;0.60;;;20.30;98.90;;;;;;5017882;28;20033;-85
2022/06/28 08:55:11;;;;;;;3.63;0.30;;;20.40;98.40;;;;;;5035563;28;20538;-86
2022/06/28 08:57:39;;;;;;;2.50;0.30;;;20.40;97.40;;;;;;5017856;28;20041;-85
2022/06/28 09:00:10;;;;;;;4.07;0.77;;;20.40;96.10;;;;;;5035399;28;20026;-85
2022/06/28 09:02:36;;;;;;;4.63;0.75;;;20.40;96.20;;;;;;5034530;28;20021;-85
2022/06/28 09:05:03;;;;;;;2.20;0.40;;;20.50;96.60;;;;;;5017976;28;20026;-86
2022/06/28 09:07:29;;;;;;;3.42;0.82;;;20.50;95.90;;;;;;5017743;28;20056;-86
2022/06/28 09:09:55;;;;;;;6.13;0.50;;;20.70;95.60;;;;;;5017873;28;20021;-85
2022/06/28 09:12:21;;;;;;;5.72;0.50;;;20.80;95.50;;;;;;5017580;28;20027;-85
2022/06/28 09:14:47;;;;;;;4.68;0.50;;;20.80;95.10;;;;;;5017603;28;20112;-85
2022/06/28 09:17:28;;;;;;;3.60;0.63;;;20.80;95.10;;;;;;5017431;28;20112;-85
2022/06/28 09:20:14;;;;;;;3.30;0.30;;;20.90;94.60;;;;;;5017772;28;20474;-86
2022/06/28 09:22:42;;;;;;;3.22;0.45;;;21.00;94.00;;;;;;5017425;28;20049;-85
2022/06/28 09:25:23;;;;;;;5.57;0.50;;;21.00;93.90;;;;;;5017552;28;20028;-85
2022/06/28 09:27:48;;;;;;;1.95;0.30;;;21.10;93.20;;;;;;5017360;28;20026;-85
2022/06/28 09:30:14;;;;;;;1.83;0.30;;;21.10;92.50;;;;;;5017605;28;20056;-85
2022/06/28 09:32:40;;;;;;;3.65;0.40;;;21.10;92.40;;;;;;5017201;28;20028;-86
2022/06/28 09:35:12;;;;;;;3.08;0.40;;;21.20;92.30;;;;;;5017119;28;20025;-85
2022/06/28 09:37:55;;;;;;;4.35;0.30;;;21.30;92.10;;;;;;5016892;28;20034;-85
2022/06/28 09:40:29;;;;;;;2.80;0.20;;;21.30;91.70;;;;;;5017366;28;20040;-85
2022/06/28 09:43:13;;;;;;;2.60;0.20;;;21.30;91.10;;;;;;5016984;28;20044;-86
2022/06/28 09:45:43;;;;;;;2.38;0.20;;;21.30;90.60;;;;;;5016935;28;20087;-86
2022/06/28 09:48:15;;;;;;;3.35;0.20;;;21.20;90.00;;;;;;5017109;28;20032;-86
2022/06/28 09:50:42;;;;;;;3.45;0.28;;;21.30;90.30;;;;;;5017205;28;20036;-85
2022/06/28 09:53:13;;;;;;;1.70;0.25;;;21.40;90.20;;;;;;5016898;28;20060;-85
2022/06/28 09:55:40;;;;;;;1.65;0.20;;;21.40;90.20;;;;;;5016964;28;20079;-85
2022/06/28 09:58:07;;;;;;;2.08;0.30;;;21.50;89.70;;;;;;5016325;28;20121;-84
2022/06/28 10:00:35;;;;;;;2.67;0.43;;;21.60;89.50;;;;;;5016602;28;20159;-85
2022/06/28 10:03:01;;;;;;;3.75;0.20;;;21.70;88.20;;;;;;5016561;28;20083;-85
2022/06/28 10:05:27;;;;;;;2.70;0.20;;;21.70;87.90;;;;;;5015707;28;20402;-85
2022/06/28 10:07:53;;;;;;;4.63;0.20;;;21.70;87.40;;;;;;5016731;28;20026;-85
2022/06/28 10:10:22;;;;;;;4.75;0.30;;;21.80;86.10;;;;;;5016491;28;20103;-85
2022/06/28 10:15:47;;;;;;;2.22;0.30;;;21.80;85.90;;;;;;5034427;28;20029;-85
2022/06/28 10:18:17;;;;;;;1.75;0.20;;;21.90;85.90;;;;;;5016524;28;20036;-85
2022/06/28 10:20:44;;;;;;;2.67;0.50;;;21.90;85.50;;;;;;5016401;28;20021;-85
2022/06/28 10:23:36;;;;;;;1.95;0.20;;;21.90;85.30;;;;;;5016149;28;20025;-85
2022/06/28 10:26:15;;;;;;;3.03;0.20;;;22.00;85.60;;;;;;5016465;28;20026;-85
2022/06/28 10:28:43;;;;;;;3.67;0.30;;;22.00;83.90;;;;;;5016253;28;20025;-85
2022/06/28 10:31:21;;;;;;;1.20;0.20;;;21.90;83.60;;;;;;5016227;28;20481;-85
2022/06/28 10:34:08;;;;;;;2.10;0.38;;;21.90;84.20;;;;;;5032591;28;20025;-86
2022/06/28 10:36:41;;;;;;;2.80;0.20;;;21.90;84.20;;;;;;5015780;28;20045;-86
2022/06/28 10:39:06;;;;;;;3.75;0.30;;;22.10;84.20;;;;;;5033866;28;20040;-85
2022/06/28 10:42:05;;;;;;;3.70;0.30;;;22.10;83.40;;;;;;5032522;28;20018;-85
2022/06/28 10:44:34;;;;;;;1.58;0.28;;;22.40;85.10;;;;;;5004812;28;20029;-86
2022/06/28 10:47:05;;;;;;;4.50;0.20;;;22.50;84.60;;;;;;5033780;28;20017;-85
2022/06/28 10:49:45;;;;;;;4.18;0.30;;;22.60;84.50;;;;;;5032763;28;20385;-85
2022/06/28 10:52:16;;;;;;;1.17;0.20;;;22.70;84.20;;;;;;5033463;28;20056;-85
2022/06/28 10:55:02;;;;;;;3.03;0.82;;;22.60;83.20;;;;;;5033950;28;20017;-85
2022/06/28 10:57:33;;;;;;;2.90;0.20;;;22.50;83.70;;;;;;5032682;28;20041;-86
2022/06/28 11:00:07;;;;;;;1.65;0.30;;;22.50;84.10;;;;;;5032388;28;20393;-85
2022/06/28 11:02:49;;;;;;;2.40;0.20;;;22.60;83.80;;;;;;5015863;28;20037;-85
2022/06/28 11:05:14;;;;;;;5.18;0.30;;;22.70;83.30;;;;;;5032268;28;20030;-86
2022/06/28 11:07:42;;;;;;;5.28;0.60;;;22.70;82.80;;;;;;5016053;28;20036;-86
2022/06/28 11:10:16;;;;;;;3.03;0.35;;;22.80;84.00;;;;;;5015889;28;20029;-84
2022/06/28 11:12:43;;;;;;;1.70;0.30;;;22.90;83.30;;;;;;5016020;28;20413;-86
2022/06/28 11:15:37;;;;;;;2.72;0.30;;;23.00;83.10;;;;;;5016427;28;20032;-86
2022/06/28 11:18:13;;;;;;;1.77;0.20;;;23.10;83.10;;;;;;5019837;28;20034;-85
2022/06/28 11:20:39;;;;;;;2.20;0.22;;;23.20;82.50;;;;;;5037472;28;20033;-86
2022/06/28 11:23:05;;;;;;;1.77;0.20;;;23.20;81.30;;;;;;5020036;28;20378;-86
2022/06/28 11:28:15;;;;;;;3.25;0.30;;;23.00;80.90;;;;;;5037538;28;20040;-85
2022/06/28 11:30:42;;;;;;;2.35;0.20;;;22.70;81.50;;;;;;5019420;28;20022;-85
2022/06/28 11:33:10;;;;;;;2.75;0.30;;;22.70;82.80;;;;;;5019478;28;20033;-85
2022/06/28 11:35:36;;;;;;;3.45;0.38;;;22.80;82.50;;;;;;5019198;28;20028;-86
2022/06/28 11:38:05;;;;;;;2.13;0.20;;;23.00;82.20;;;;;;5019472;28;20398;-85
2022/06/28 11:40:42;;;;;;;2.45;0.20;;;23.20;81.50;;;;;;5019287;28;20469;-87
2022/06/28 11:43:12;;;;;;;2.03;0.30;;;23.40;80.80;;;;;;5019646;28;20028;-86
2022/06/28 11:45:43;;;;;;;4.80;0.22;;;23.50;79.90;;;;;;5019586;28;20035;-86
2022/06/28 11:48:11;;;;;;;2.47;0.25;;;23.60;79.20;;;;;;5019411;28;20025;-86
2022/06/28 11:50:44;;;;;;;2.47;0.30;;;23.70;79.60;;;;;;5019305;28;20037;-86
2022/06/28 11:53:11;;;;;;;1.55;0.20;;;23.90;78.80;;;;;;5019268;28;20052;-86
2022/06/28 11:55:42;;;;;;;4.40;0.73;;;23.90;78.20;;;;;;5019471;28;20026;-86
2022/06/28 11:58:27;;;;;;;3.05;0.40;;;24.00;77.70;;;;;;5018880;28;20030;-86
2022/06/28 12:01:12;;;;;;;0.70;0.20;;;24.10;77.90;;;;;;5035482;28;20033;-86
2022/06/28 12:03:43;;;;;;;3.20;0.30;;;24.20;77.80;;;;;;5018920;28;20021;-86
2022/06/28 12:06:18;;;;;;;3.20;0.20;;;24.20;77.80;;;;;;5035201;28;20502;-86
2022/06/28 12:08:52;;;;;;;2.67;0.25;;;24.20;77.20;;;;;;5018911;28;20477;-86
2022/06/28 12:11:34;;;;;;;2.13;0.20;;;24.40;76.70;;;;;;5036662;28;20480;-86
2022/06/28 12:14:05;;;;;;;3.15;0.20;;;24.40;76.10;;;;;;5018841;28;20029;-86
2022/06/28 12:16:37;;;;;;;1.95;0.28;;;24.40;74.90;;;;;;5035585;28;20125;-85
2022/06/28 12:19:06;;;;;;;1.83;0.20;;;24.30;74.80;;;;;;5018729;28;20069;-86
2022/06/28 12:21:32;;;;;;;5.32;0.35;;;24.10;74.70;;;;;;5018816;28;20080;-86
2022/06/28 12:23:59;;;;;;;1.75;0.22;;;23.90;76.10;;;;;;5036165;28;20029;-86
2022/06/28 12:26:42;;;;;;;4.00;0.20;;;23.80;75.90;;;;;;5017978;28;20025;-86
2022/06/28 12:29:08;;;;;;;4.68;0.43;;;23.80;76.00;;;;;;5043049;28;20079;-86
2022/06/28 12:31:34;;;;;;;2.83;0.25;;;23.80;76.00;;;;;;5038327;28;20028;-86
2022/06/28 12:34:06;;;;;;;1.63;0.30;;;23.90;75.20;;;;;;5055802;28;20029;-86
2022/06/28 12:36:31;;;;;;;1.45;0.20;;;24.20;74.10;;;;;;5037922;28;20051;-85
2022/06/28 12:38:57;;;;;;;2.42;0.52;;;24.40;74.40;;;;;;5037989;28;20044;-85
2022/06/28 12:41:22;;;;;;;2.42;0.20;;;24.60;74.60;;;;;;5038214;28;20116;-86
2022/06/28 12:43:48;;;;;;;3.15;0.30;;;24.90;73.70;;;;;;5037887;28;20063;-86
2022/06/28 12:46:13;;;;;;;3.70;0.32;;;25.20;72.40;;;;;;5038155;28;20390;-87
2022/06/28 12:48:39;;;;;;;2.47;0.30;;;25.30;70.70;;;;;;5038020;28;20481;-86
2022/06/28 12:51:04;;;;;;;1.75;0.20;;;25.20;71.20;;;;;;5038053;28;20021;-86
2022/06/28 12:53:30;;;;;;;2.45;0.30;;;25.30;71.70;;;;;;5037956;28;20362;-87
2022/06/28 12:55:55;;;;;;;1.45;0.20;;;25.30;71.10;;;;;;5037774;28;20021;-86
2022/06/28 12:58:21;;;;;;;3.42;0.20;;;25.30;70.80;;;;;;5037803;28;20079;-85
2022/06/28 13:00:47;;;;;;;2.42;0.30;;;25.30;71.80;;;;;;5037737;28;20112;-86